N905MF KPVU-KPVU
Flight info
| Callsign | N905MF |
|---|---|
| Flight time | N/A |
| Altitude | VFR |
| Route | |
| Aircraft | B407/L-VGD/C |
Departure
| Time | 2026-04-29 18:02 |
|---|---|
| Airport | Provo Municipal Airport (KPVU) |
Arrival
| Time | N/A |
|---|---|
| Airport | Provo Municipal Airport (KPVU) |
| Time | Latitude | Longitude | Altitude | Speed | Heading |
|---|---|---|---|---|---|
| 2026-04-29 18:01 | 40.28622 | -111.75093 | 5597 ft | 151 kts | 282° |
| 2026-04-29 18:01 | 40.28851 | -111.76424 | 5082 ft | 149 kts | 272° |
| 2026-04-29 18:01 | 40.29424 | -111.77498 | 4790 ft | 149 kts | 332° |
| 2026-04-29 18:01 | 40.30315 | -111.77157 | 4830 ft | 143 kts | 52° |
| 2026-04-29 18:02 | 40.30611 | -111.76022 | 4945 ft | 122 kts | 96° |
| 2026-04-29 18:02 | 40.30530 | -111.74939 | 4876 ft | 130 kts | 99° |
| 2026-04-29 18:02 | 40.30395 | -111.74685 | 5311 ft | 44 kts | 176° |
| 2026-04-29 18:02 | 40.30069 | -111.74711 | 5716 ft | 78 kts | 198° |
| 2026-04-29 18:03 | 40.29472 | -111.75057 | 5938 ft | 77 kts | 225° |
| 2026-04-29 18:03 | 40.28916 | -111.75247 | 6126 ft | 116 kts | 155° |
| 2026-04-29 18:03 | 40.28093 | -111.74909 | 6196 ft | 131 kts | 159° |
| 2026-04-29 18:03 | 40.27203 | -111.74433 | 6152 ft | 131 kts | 145° |
| 2026-04-29 18:04 | 40.26549 | -111.73786 | 6532 ft | 124 kts | 144° |
| 2026-04-29 18:04 | 40.25774 | -111.73189 | 6789 ft | 124 kts | 152° |
| 2026-04-29 18:04 | 40.24953 | -111.72657 | 6895 ft | 139 kts | 152° |
| 2026-04-29 18:04 | 40.23997 | -111.72119 | 6621 ft | 161 kts | 151° |
| 2026-04-29 18:05 | 40.22988 | -111.71449 | 6241 ft | 165 kts | 144° |
| 2026-04-29 18:05 | 40.22026 | -111.70644 | 5794 ft | 168 kts | 140° |
| 2026-04-29 18:05 | 40.21577 | -111.69406 | 5772 ft | 149 kts | 69° |
| 2026-04-29 18:05 | 40.22363 | -111.68732 | 5565 ft | 151 kts | 353° |
| 2026-04-29 18:06 | 40.23441 | -111.68747 | 5227 ft | 157 kts | 338° |
| 2026-04-29 18:06 | 40.24445 | -111.69123 | 5126 ft | 146 kts | 323° |
| 2026-04-29 18:06 | 40.25275 | -111.69810 | 5120 ft | 139 kts | 316° |
| 2026-04-29 18:06 | 40.25736 | -111.70761 | 5411 ft | 122 kts | 277° |
| 2026-04-29 18:07 | 40.25421 | -111.71757 | 5540 ft | 116 kts | 236° |
| 2026-04-29 18:07 | 40.24686 | -111.72473 | 5259 ft | 139 kts | 211° |
| 2026-04-29 18:07 | 40.23827 | -111.73110 | 5134 ft | 142 kts | 196° |
| 2026-04-29 18:07 | 40.22884 | -111.72802 | 5012 ft | 149 kts | 146° |
| 2026-04-29 18:08 | 40.22066 | -111.72124 | 5145 ft | 138 kts | 149° |
| 2026-04-29 18:08 | 40.21282 | -111.71970 | 5100 ft | 108 kts | 270° |
| 2026-04-29 18:08 | 40.21838 | -111.72044 | 5123 ft | 99 kts | 36° |
| 2026-04-29 18:08 | 40.22504 | -111.71548 | 5263 ft | 103 kts | 339° |
| 2026-04-29 18:09 | 40.22189 | -111.71969 | 4738 ft | 139 kts | 162° |